Time;durP1;ratioP1;P1;durP2;ratioP2;P2;SDS_P1;SDS_P2;PMS_P1;PMS_P2;Temp;Humidity;BMP_temperature;BMP_pressure;BME280_temperature;BME280_humidity;BME280_pressure;Samples;Min_cycle;Max_cycle;Signal;HPM_P1;HPM_P2
2023/03/05 00:00:43;;;;;;;21.08;3.65;;;5.20;99.90;;;;;;5034541;28;25080;-75
2023/03/05 00:03:09;;;;;;;17.67;3.58;;;5.20;99.90;;;;;;5038328;28;25065;-76
2023/03/05 00:05:34;;;;;;;7.63;1.77;;;5.20;99.90;;;;;;5036628;28;25058;-77
2023/03/05 00:08:00;;;;;;;6.50;1.92;;;5.10;99.90;;;;;;5034086;28;25056;-75
2023/03/05 00:10:26;;;;;;;13.30;2.28;;;4.90;99.90;;;;;;5029914;28;25075;-74
2023/03/05 00:12:52;;;;;;;13.10;2.42;;;4.90;99.90;;;;;;5038076;28;25081;-75
2023/03/05 00:15:17;;;;;;;9.35;2.30;;;4.90;99.90;;;;;;5032284;28;25066;-76
2023/03/05 00:17:43;;;;;;;14.70;2.25;;;4.90;99.90;;;;;;5033710;28;25055;-74
2023/03/05 00:20:09;;;;;;;7.60;2.10;;;5.00;99.90;;;;;;5033894;28;25049;-77
2023/03/05 00:22:35;;;;;;;10.38;2.20;;;5.00;99.90;;;;;;5034684;28;25076;-76
2023/03/05 00:25:00;;;;;;;8.48;2.78;;;5.10;99.90;;;;;;5034263;28;25109;-75
2023/03/05 00:27:26;;;;;;;20.20;2.85;;;5.10;99.90;;;;;;5036360;28;25090;-75
2023/03/05 00:29:51;;;;;;;8.23;2.40;;;5.00;99.90;;;;;;5031869;28;25074;-75
2023/03/05 00:32:17;;;;;;;8.27;2.47;;;5.00;99.90;;;;;;5034187;28;25126;-72
2023/03/05 00:34:43;;;;;;;9.55;3.03;;;5.00;99.90;;;;;;5036109;28;25054;-75
2023/03/05 00:37:08;;;;;;;9.65;3.22;;;4.90;99.90;;;;;;5034607;28;25069;-75
2023/03/05 00:39:34;;;;;;;10.82;2.42;;;5.00;99.90;;;;;;5036321;28;25064;-75
2023/03/05 00:41:59;;;;;;;9.10;2.60;;;4.90;99.90;;;;;;5034291;28;25074;-75
2023/03/05 00:44:25;;;;;;;5.72;2.35;;;4.90;99.90;;;;;;5036565;28;25095;-75
2023/03/05 00:46:50;;;;;;;9.10;4.13;;;4.90;99.90;;;;;;5035921;28;25055;-75
2023/03/05 00:49:16;;;;;;;10.40;3.60;;;4.90;99.90;;;;;;5018872;28;25075;-75
2023/03/05 00:51:42;;;;;;;7.10;3.20;;;4.80;99.90;;;;;;5027006;28;25055;-75
2023/03/05 00:54:07;;;;;;;12.27;3.70;;;4.70;99.90;;;;;;5030568;28;25064;-74
2023/03/05 00:56:33;;;;;;;9.63;2.83;;;4.70;99.90;;;;;;5030457;28;25086;-74
2023/03/05 00:58:59;;;;;;;8.90;2.55;;;4.60;99.90;;;;;;5031089;28;25055;-75
2023/03/05 01:01:25;;;;;;;9.18;3.22;;;4.40;99.90;;;;;;5031467;28;25113;-75
2023/03/05 01:03:52;;;;;;;11.88;3.25;;;4.30;99.90;;;;;;5030945;28;25107;-76
2023/03/05 01:06:17;;;;;;;13.88;2.72;;;4.30;99.90;;;;;;5019767;28;25068;-75
2023/03/05 01:08:44;;;;;;;7.88;3.00;;;4.30;99.90;;;;;;5035497;28;25088;-76
2023/03/05 01:11:10;;;;;;;10.57;3.22;;;4.30;99.90;;;;;;5024999;28;25057;-74
2023/03/05 01:13:36;;;;;;;10.00;2.08;;;4.20;99.90;;;;;;5036072;28;25072;-74
2023/03/05 01:16:03;;;;;;;11.10;2.78;;;4.10;99.90;;;;;;5040558;28;25083;-75
2023/03/05 01:18:29;;;;;;;14.07;3.97;;;4.10;99.90;;;;;;5036239;28;25150;-76
2023/03/05 01:20:54;;;;;;;7.50;2.22;;;4.10;99.90;;;;;;5031217;28;25058;-75
2023/03/05 01:23:20;;;;;;;10.02;2.85;;;4.10;99.90;;;;;;5030593;28;25070;-75
2023/03/05 01:25:52;;;;;;;13.65;2.58;;;4.20;99.90;;;;;;5030983;28;25184;-76
2023/03/05 01:28:18;;;;;;;;;;;4.30;99.90;;;;;;5029812;28;25065;-76
2023/03/05 01:30:44;;;;;;;12.63;3.85;;;4.40;99.90;;;;;;5032933;28;25167;-76
2023/03/05 01:33:09;;;;;;;8.60;3.03;;;4.50;99.90;;;;;;5033053;28;25063;-75
2023/03/05 01:35:35;;;;;;;6.30;2.85;;;4.50;99.90;;;;;;5031557;28;25103;-75
2023/03/05 01:38:00;;;;;;;11.80;3.30;;;4.60;99.90;;;;;;5031179;28;25088;-74
2023/03/05 01:40:28;;;;;;;13.82;3.70;;;4.70;99.90;;;;;;5020672;28;25053;-76
2023/03/05 01:43:18;;;;;;;12.25;2.92;;;4.70;99.90;;;;;;5030674;28;25058;-74
2023/03/05 01:46:20;;;;;;;13.05;3.28;;;4.80;99.90;;;;;;5030575;28;25050;-74
2023/03/05 01:48:53;;;;;;;12.30;2.85;;;4.80;99.90;;;;;;5029579;28;25098;-74
2023/03/05 01:51:21;;;;;;;9.45;2.60;;;4.80;99.90;;;;;;5030078;28;25052;-75
2023/03/05 01:53:47;;;;;;;10.75;3.60;;;4.80;99.90;;;;;;5020964;28;25130;-76
2023/03/05 01:56:13;;;;;;;15.50;3.67;;;4.80;99.90;;;;;;5029343;28;25100;-74
2023/03/05 01:58:39;;;;;;;9.73;2.47;;;4.80;99.90;;;;;;5029525;28;25084;-76
2023/03/05 02:01:04;;;;;;;10.57;2.63;;;4.90;99.90;;;;;;5017050;28;25107;-74
2023/03/05 02:03:31;;;;;;;12.40;3.13;;;4.90;99.90;;;;;;5019166;28;25170;-75
2023/03/05 02:05:57;;;;;;;16.90;3.42;;;5.00;99.90;;;;;;5033867;28;25084;-75
2023/03/05 02:08:23;;;;;;;11.07;3.20;;;5.00;99.90;;;;;;5033776;28;25144;-75
2023/03/05 02:10:51;;;;;;;12.63;3.05;;;5.00;99.90;;;;;;5032904;28;25069;-75
2023/03/05 02:13:21;;;;;;;8.65;2.53;;;5.00;99.90;;;;;;5032698;28;25108;-74
2023/03/05 02:15:48;;;;;;;6.88;2.63;;;5.10;99.90;;;;;;5034083;28;25059;-74
2023/03/05 02:18:16;;;;;;;13.35;3.30;;;5.10;99.90;;;;;;5033504;28;25065;-74
2023/03/05 02:21:02;;;;;;;10.18;2.15;;;5.10;99.90;;;;;;5033976;28;25114;-75
2023/03/05 02:23:32;;;;;;;8.73;2.50;;;5.00;99.90;;;;;;5030115;28;25071;-74
2023/03/05 02:25:58;;;;;;;11.57;2.35;;;5.10;99.90;;;;;;5033214;28;25055;-75
2023/03/05 02:28:42;;;;;;;11.07;3.08;;;5.10;99.90;;;;;;5036299;28;25069;-75
2023/03/05 02:31:17;;;;;;;14.13;3.45;;;5.10;99.90;;;;;;5035437;28;25062;-77
2023/03/05 02:33:43;;;;;;;12.80;2.30;;;5.00;99.90;;;;;;5032348;28;25066;-75
2023/03/05 02:36:10;;;;;;;8.25;2.53;;;5.10;99.90;;;;;;5033566;28;25156;-74
2023/03/05 02:38:36;;;;;;;10.27;2.60;;;5.20;99.90;;;;;;5032328;28;25093;-75
2023/03/05 02:41:02;;;;;;;5.75;2.35;;;5.20;99.90;;;;;;5041653;28;25065;-76
2023/03/05 02:43:28;;;;;;;11.80;2.75;;;5.20;99.90;;;;;;5032503;28;25054;-75
2023/03/05 02:45:53;;;;;;;12.63;3.35;;;5.20;99.90;;;;;;5041818;28;25070;-76
2023/03/05 02:48:19;;;;;;;10.57;2.88;;;5.10;99.90;;;;;;5049724;28;25071;-74
2023/03/05 02:50:46;;;;;;;9.07;2.38;;;5.10;99.90;;;;;;5049395;28;25078;-74
2023/03/05 02:53:11;;;;;;;9.63;3.28;;;5.10;99.90;;;;;;5032503;28;25058;-74
2023/03/05 02:55:37;;;;;;;4.47;2.25;;;5.00;99.90;;;;;;5024442;28;25075;-75
2023/03/05 02:58:02;;;;;;;9.93;2.40;;;5.00;99.90;;;;;;5035071;28;25098;-74
2023/03/05 03:00:28;;;;;;;12.18;3.17;;;5.00;99.90;;;;;;5025591;28;25101;-74
2023/03/05 03:02:54;;;;;;;7.82;2.13;;;4.90;99.90;;;;;;5043232;28;25079;-75
2023/03/05 03:05:19;;;;;;;5.93;3.15;;;4.90;99.90;;;;;;5034788;28;25161;-74
2023/03/05 03:07:45;;;;;;;11.02;2.22;;;4.80;99.90;;;;;;5046987;28;25108;-74
2023/03/05 03:10:11;;;;;;;7.93;3.28;;;4.70;99.90;;;;;;5037395;28;25056;-76
2023/03/05 03:12:38;;;;;;;5.30;2.70;;;4.70;99.90;;;;;;5024083;28;25135;-76
2023/03/05 03:15:05;;;;;;;6.45;2.60;;;4.70;99.90;;;;;;5040095;28;25130;-75
2023/03/05 03:17:33;;;;;;;11.20;3.05;;;4.70;99.90;;;;;;5047302;28;25075;-76
2023/03/05 03:19:59;;;;;;;8.27;2.63;;;4.60;99.90;;;;;;5049378;28;25059;-75
2023/03/05 03:22:25;;;;;;;12.80;2.67;;;4.50;99.90;;;;;;5043877;28;25090;-75
2023/03/05 03:24:51;;;;;;;9.80;3.25;;;4.40;99.90;;;;;;5018368;28;25083;-73
2023/03/05 03:27:16;;;;;;;18.65;4.90;;;4.50;99.90;;;;;;5031429;28;25079;-74
2023/03/05 03:29:42;;;;;;;7.35;3.00;;;4.60;99.90;;;;;;5018750;28;25069;-75
2023/03/05 03:32:07;;;;;;;8.88;3.08;;;4.70;99.90;;;;;;5033201;28;25159;-74
2023/03/05 03:34:33;;;;;;;8.63;3.15;;;4.70;99.90;;;;;;5044649;28;25085;-74
2023/03/05 03:36:58;;;;;;;12.27;4.03;;;4.70;99.90;;;;;;5038996;28;25110;-75
2023/03/05 03:39:24;;;;;;;11.68;3.83;;;4.70;99.90;;;;;;5032108;28;25058;-76
2023/03/05 03:41:52;;;;;;;6.13;3.08;;;4.70;99.90;;;;;;5033236;28;25078;-75
2023/03/05 03:44:19;;;;;;;8.48;3.25;;;4.60;99.90;;;;;;5031421;28;25086;-75
2023/03/05 03:46:46;;;;;;;15.90;3.30;;;4.60;99.90;;;;;;5032160;28;25074;-75
2023/03/05 03:49:15;;;;;;;12.82;3.45;;;4.70;99.90;;;;;;5031392;28;25071;-75
2023/03/05 03:51:41;;;;;;;11.05;3.22;;;4.60;99.90;;;;;;5032300;28;25094;-76
2023/03/05 03:54:07;;;;;;;8.73;3.22;;;4.50;99.90;;;;;;5031737;28;25093;-76
2023/03/05 03:56:32;;;;;;;6.10;3.33;;;4.50;99.90;;;;;;5032401;28;25086;-75
2023/03/05 03:58:58;;;;;;;7.22;3.30;;;4.40;99.90;;;;;;5020233;28;25062;-74
2023/03/05 04:01:23;;;;;;;14.43;3.30;;;4.50;99.90;;;;;;5030991;28;25136;-73
2023/03/05 04:03:49;;;;;;;7.10;3.03;;;4.70;99.90;;;;;;5029235;28;25105;-75
2023/03/05 04:06:15;;;;;;;12.73;3.10;;;4.80;99.90;;;;;;5028484;28;25149;-75
2023/03/05 04:08:40;;;;;;;10.55;3.00;;;4.80;99.90;;;;;;5031235;28;25123;-75
2023/03/05 04:11:06;;;;;;;8.45;3.83;;;4.90;99.90;;;;;;5030161;28;25148;-75
2023/03/05 04:13:31;;;;;;;14.88;4.05;;;5.00;99.90;;;;;;5038275;28;25057;-75
2023/03/05 04:15:57;;;;;;;8.68;2.50;;;5.00;99.90;;;;;;5039940;28;25164;-75
2023/03/05 04:18:23;;;;;;;5.30;2.75;;;5.10;99.90;;;;;;5047835;28;25059;-75
2023/03/05 04:20:49;;;;;;;8.27;2.85;;;5.10;99.90;;;;;;5046898;28;25082;-75
2023/03/05 04:23:15;;;;;;;4.90;3.22;;;5.10;99.90;;;;;;5044434;28;25062;-76
2023/03/05 04:25:40;;;;;;;10.80;3.67;;;5.10;99.90;;;;;;5035697;28;25140;-75
2023/03/05 04:28:06;;;;;;;12.63;3.28;;;5.10;99.90;;;;;;5019800;28;25155;-74
2023/03/05 04:30:32;;;;;;;6.45;2.85;;;5.20;99.90;;;;;;5035425;28;25111;-74
2023/03/05 04:32:57;;;;;;;9.77;3.20;;;5.20;99.90;;;;;;5035540;28;25071;-74
2023/03/05 04:35:23;;;;;;;13.25;4.53;;;5.30;99.90;;;;;;5031717;28;25136;-73
2023/03/05 04:37:48;;;;;;;11.93;3.67;;;5.30;99.90;;;;;;5031204;28;25068;-75
2023/03/05 04:40:15;;;;;;;19.13;3.60;;;5.10;99.90;;;;;;5030626;28;25061;-75
2023/03/05 04:42:41;;;;;;;8.15;3.20;;;4.90;99.90;;;;;;5030460;28;25065;-75
2023/03/05 04:45:07;;;;;;;6.97;3.53;;;4.60;99.90;;;;;;5030637;28;25083;-75
2023/03/05 04:47:33;;;;;;;4.18;2.60;;;4.60;99.90;;;;;;5030441;28;25161;-74
2023/03/05 04:49:58;;;;;;;5.78;3.47;;;4.60;99.90;;;;;;5030497;28;25080;-74
2023/03/05 04:52:24;;;;;;;7.60;3.20;;;4.70;99.90;;;;;;5029956;28;25092;-74
2023/03/05 04:54:49;;;;;;;9.63;3.78;;;4.80;99.90;;;;;;5030122;28;25072;-74
2023/03/05 04:57:15;;;;;;;9.55;3.92;;;4.80;99.90;;;;;;5030227;28;25094;-75
2023/03/05 04:59:41;;;;;;;10.48;4.47;;;4.80;99.90;;;;;;5018509;28;25075;-75
2023/03/05 05:02:06;;;;;;;6.15;3.10;;;4.80;99.90;;;;;;5027878;28;25071;-76
2023/03/05 05:04:32;;;;;;;10.55;3.78;;;4.90;99.90;;;;;;5029564;28;25053;-76
2023/03/05 05:06:58;;;;;;;11.32;4.20;;;4.90;99.90;;;;;;5030248;28;25153;-75
2023/03/05 05:09:24;;;;;;;9.15;3.22;;;4.90;99.90;;;;;;5030266;28;25073;-74
2023/03/05 05:11:50;;;;;;;10.20;4.65;;;5.00;99.90;;;;;;5029731;28;25060;-75
2023/03/05 05:14:16;;;;;;;9.80;3.67;;;5.00;99.90;;;;;;5030224;28;25124;-74
2023/03/05 05:16:42;;;;;;;5.00;3.30;;;5.00;99.90;;;;;;5029542;28;25065;-75
2023/03/05 05:19:08;;;;;;;8.38;3.33;;;4.90;99.90;;;;;;5030020;28;25134;-76
2023/03/05 05:21:33;;;;;;;8.82;3.22;;;5.00;99.90;;;;;;5017194;28;25059;-74
2023/03/05 05:23:59;;;;;;;6.55;3.20;;;5.00;99.90;;;;;;5032119;28;25069;-74
2023/03/05 05:26:25;;;;;;;9.38;3.10;;;4.90;99.90;;;;;;5031332;28;25091;-73
2023/03/05 05:28:50;;;;;;;9.68;3.35;;;4.90;99.90;;;;;;5019586;28;25072;-75
2023/03/05 05:31:18;;;;;;;6.43;3.72;;;4.90;99.90;;;;;;5030830;28;25061;-75
2023/03/05 05:33:43;;;;;;;6.60;3.15;;;4.80;99.90;;;;;;5031545;28;25096;-74
2023/03/05 05:36:12;;;;;;;3.75;2.25;;;4.70;99.90;;;;;;5030640;28;25115;-75
2023/03/05 05:38:38;;;;;;;11.43;2.40;;;4.80;99.90;;;;;;5030726;28;25094;-75
2023/03/05 05:41:06;;;;;;;4.80;2.78;;;4.80;99.90;;;;;;5021245;28;25084;-73
2023/03/05 05:43:32;;;;;;;3.60;2.40;;;4.80;99.90;;;;;;5030674;28;25056;-75
2023/03/05 05:46:02;;;;;;;7.13;2.75;;;4.90;99.90;;;;;;5037557;28;25065;-75
2023/03/05 05:48:33;;;;;;;4.75;2.97;;;4.70;99.90;;;;;;5038563;28;25066;-73
2023/03/05 05:51:03;;;;;;;6.97;2.28;;;4.70;99.90;;;;;;5032569;28;25086;-78
2023/03/05 05:53:28;;;;;;;9.00;2.55;;;4.70;99.90;;;;;;5052736;28;25099;-75
2023/03/05 05:55:54;;;;;;;4.22;2.90;;;4.70;99.90;;;;;;5046081;28;25123;-74
2023/03/05 05:58:20;;;;;;;5.15;2.70;;;4.70;99.90;;;;;;5036219;28;25074;-75
2023/03/05 06:00:45;;;;;;;5.65;2.40;;;4.60;99.90;;;;;;5032530;28;25106;-75
2023/03/05 06:03:11;;;;;;;3.80;2.38;;;4.60;99.90;;;;;;5021043;28;25110;-75
2023/03/05 06:05:36;;;;;;;6.30;2.30;;;4.50;99.90;;;;;;5030007;28;25050;-74
2023/03/05 06:08:02;;;;;;;8.13;2.53;;;4.60;99.90;;;;;;5028847;28;25077;-75
2023/03/05 06:10:27;;;;;;;4.93;2.47;;;4.50;99.90;;;;;;5033444;28;25131;-75
2023/03/05 06:12:53;;;;;;;5.28;2.53;;;4.40;99.90;;;;;;5032502;28;25088;-74
2023/03/05 06:15:19;;;;;;;4.80;2.70;;;4.50;99.90;;;;;;5030872;28;25099;-74
2023/03/05 06:17:46;;;;;;;4.97;2.50;;;4.40;99.90;;;;;;5030194;28;25066;-73
2023/03/05 06:20:12;;;;;;;9.27;3.10;;;4.40;99.90;;;;;;5029999;28;25062;-75
2023/03/05 06:22:38;;;;;;;3.50;2.38;;;4.50;99.90;;;;;;5030243;28;25055;-75
2023/03/05 06:25:06;;;;;;;7.25;2.83;;;4.50;99.90;;;;;;5029390;28;25078;-75
2023/03/05 06:27:33;;;;;;;4.10;2.70;;;4.50;99.90;;;;;;5029148;28;25081;-75
2023/03/05 06:29:58;;;;;;;5.05;2.60;;;4.40;99.90;;;;;;5019160;28;25060;-74
2023/03/05 06:32:24;;;;;;;4.20;2.90;;;4.50;99.90;;;;;;5031968;28;25080;-74
2023/03/05 06:34:50;;;;;;;7.78;2.90;;;4.60;99.90;;;;;;5034729;28;25097;-75
2023/03/05 06:37:16;;;;;;;6.30;3.05;;;4.60;99.90;;;;;;5035599;28;25104;-75
2023/03/05 06:39:41;;;;;;;5.40;2.60;;;4.60;99.90;;;;;;5033705;28;25066;-74
2023/03/05 06:42:07;;;;;;;5.47;2.88;;;4.60;99.90;;;;;;5024649;28;25073;-73
2023/03/05 06:44:32;;;;;;;4.53;2.60;;;4.70;99.90;;;;;;5021073;28;25081;-74
2023/03/05 06:46:58;;;;;;;2.58;2.13;;;4.70;99.90;;;;;;5033215;28;25074;-74
2023/03/05 06:49:24;;;;;;;5.40;2.60;;;4.60;99.90;;;;;;5034271;28;25050;-75
2023/03/05 06:51:49;;;;;;;4.65;2.05;;;4.70;99.90;;;;;;5038492;28;25059;-75
2023/03/05 06:54:16;;;;;;;7.55;2.08;;;4.70;99.90;;;;;;5029917;28;25061;-74
2023/03/05 06:56:44;;;;;;;3.65;1.80;;;4.80;99.90;;;;;;5039594;28;25057;-76
2023/03/05 06:59:12;;;;;;;3.13;1.67;;;4.90;99.90;;;;;;5037176;28;25069;-75
2023/03/05 07:01:37;;;;;;;3.20;2.20;;;4.90;99.90;;;;;;5026055;28;25071;-76
2023/03/05 07:04:03;;;;;;;7.38;2.00;;;5.10;99.90;;;;;;5026238;28;25085;-77
2023/03/05 07:06:34;;;;;;;3.10;1.70;;;5.10;99.90;;;;;;5024994;28;25069;-77
2023/03/05 07:09:01;;;;;;;5.28;2.30;;;5.10;99.90;;;;;;5036797;28;25094;-76
2023/03/05 07:11:27;;;;;;;4.43;2.22;;;5.00;99.90;;;;;;5024920;28;25076;-74
2023/03/05 07:13:53;;;;;;;3.38;1.83;;;5.00;99.90;;;;;;5036887;28;25067;-74
2023/03/05 07:16:22;;;;;;;7.05;1.70;;;5.00;99.90;;;;;;5037436;28;25102;-75
2023/03/05 07:18:48;;;;;;;2.85;1.42;;;4.90;99.90;;;;;;5039117;28;25088;-77
2023/03/05 07:21:20;;;;;;;7.20;1.33;;;4.80;99.90;;;;;;5039102;28;25090;-77
2023/03/05 07:23:46;;;;;;;2.27;1.40;;;4.80;99.90;;;;;;5040919;28;25053;-76
2023/03/05 07:26:12;;;;;;;5.97;1.00;;;4.70;99.90;;;;;;5037938;28;25155;-74
2023/03/05 07:28:38;;;;;;;5.70;1.15;;;4.70;99.90;;;;;;5028083;28;25081;-77
2023/03/05 07:31:10;;;;;;;2.17;1.02;;;4.80;99.90;;;;;;5037795;28;25055;-75
2023/03/05 07:33:36;;;;;;;3.85;1.35;;;4.90;99.90;;;;;;5037395;28;25055;-74
2023/03/05 07:36:03;;;;;;;8.50;3.05;;;5.00;99.90;;;;;;5039291;28;25137;-76
2023/03/05 07:38:30;;;;;;;2.10;1.55;;;4.90;99.90;;;;;;5028228;28;25078;-76
2023/03/05 07:40:56;;;;;;;2.53;1.40;;;4.90;99.90;;;;;;5025567;28;25059;-76
2023/03/05 07:43:21;;;;;;;7.57;1.63;;;5.00;99.90;;;;;;5025536;28;25151;-76
2023/03/05 07:45:47;;;;;;;8.25;1.85;;;5.10;99.90;;;;;;5040900;28;25078;-77
2023/03/05 07:48:19;;;;;;;3.80;1.63;;;5.30;99.90;;;;;;5027343;28;25089;-77
2023/03/05 07:50:45;;;;;;;;;;;5.30;99.90;;;;;;5036056;28;25056;-76
2023/03/05 07:53:10;;;;;;;3.97;1.70;;;5.60;99.90;;;;;;5038935;28;24065;-76
2023/03/05 07:55:43;;;;;;;2.33;1.30;;;5.60;99.90;;;;;;5023518;28;25062;-77
2023/03/05 07:58:10;;;;;;;2.15;1.45;;;5.60;99.90;;;;;;5029167;28;25073;-78
2023/03/05 08:00:35;;;;;;;5.35;1.50;;;5.60;99.90;;;;;;5039886;28;25120;-77
2023/03/05 08:03:01;;;;;;;3.22;1.30;;;5.80;99.90;;;;;;5040739;28;25146;-76
2023/03/05 08:05:26;;;;;;;1.77;1.10;;;5.50;99.90;;;;;;5029538;28;25075;-77
2023/03/05 08:07:52;;;;;;;4.07;1.10;;;5.40;99.90;;;;;;5029930;28;25061;-76
2023/03/05 08:10:18;;;;;;;1.98;1.40;;;5.40;99.90;;;;;;5044651;28;25094;-76
2023/03/05 08:12:43;;;;;;;3.97;1.45;;;5.40;99.90;;;;;;5050996;28;25129;-76
2023/03/05 08:15:09;;;;;;;0.93;0.80;;;5.50;99.90;;;;;;5032522;28;25119;-76
2023/03/05 08:17:35;;;;;;;2.22;0.90;;;5.30;99.90;;;;;;5044781;28;25142;-78
2023/03/05 08:20:04;;;;;;;2.97;0.80;;;5.10;99.90;;;;;;5041727;28;25110;-76
2023/03/05 08:22:32;;;;;;;2.45;1.00;;;5.00;99.90;;;;;;5042483;28;25072;-76
2023/03/05 08:24:58;;;;;;;2.97;0.90;;;5.00;99.90;;;;;;5042811;28;25059;-77
2023/03/05 08:27:23;;;;;;;2.42;1.20;;;5.20;99.90;;;;;;5041749;28;25132;-77
2023/03/05 08:29:49;;;;;;;5.13;0.98;;;5.40;99.90;;;;;;5040459;28;25072;-78
2023/03/05 08:32:14;;;;;;;1.75;1.02;;;5.40;99.90;;;;;;5043475;28;25109;-78
2023/03/05 08:34:40;;;;;;;3.78;1.00;;;5.30;99.90;;;;;;5027393;28;25072;-78
2023/03/05 08:37:08;;;;;;;1.90;0.80;;;5.20;99.90;;;;;;5040898;28;25066;-75
2023/03/05 08:39:34;;;;;;;10.55;1.98;;;5.30;99.90;;;;;;5047108;28;25055;-78
2023/03/05 08:41:59;;;;;;;7.65;1.83;;;5.30;99.90;;;;;;5046596;28;25067;-78
2023/03/05 08:44:25;;;;;;;7.65;2.72;;;5.10;99.90;;;;;;5050067;28;25079;-77
2023/03/05 08:46:50;;;;;;;3.50;1.17;;;5.10;99.90;;;;;;5050901;28;25081;-76
2023/03/05 08:49:16;;;;;;;3.00;1.05;;;5.10;99.90;;;;;;5048289;28;25059;-76
2023/03/05 08:51:41;;;;;;;3.75;0.98;;;5.20;99.90;;;;;;5038455;28;25103;-77
2023/03/05 08:54:08;;;;;;;1.70;1.23;;;5.20;99.90;;;;;;5037163;28;25061;-75
2023/03/05 08:56:35;;;;;;;1.70;0.88;;;5.10;99.90;;;;;;5052116;28;25095;-78
2023/03/05 08:59:02;;;;;;;2.85;1.23;;;5.30;99.90;;;;;;5047837;28;25089;-76
2023/03/05 09:01:29;;;;;;;2.38;0.80;;;5.20;99.90;;;;;;5044506;28;25053;-75
2023/03/05 09:03:55;;;;;;;3.65;1.00;;;5.20;99.90;;;;;;5010334;28;25087;-75
2023/03/05 09:06:21;;;;;;;4.78;1.58;;;5.20;99.90;;;;;;5035977;28;25083;-75
2023/03/05 09:08:47;;;;;;;3.15;1.05;;;5.10;99.90;;;;;;5034433;28;25141;-76
2023/03/05 09:11:13;;;;;;;4.03;0.70;;;5.30;99.90;;;;;;5032319;28;25108;-76
2023/03/05 09:13:38;;;;;;;2.15;0.70;;;5.60;99.90;;;;;;5023736;28;25068;-75
2023/03/05 09:16:07;;;;;;;3.22;0.80;;;5.40;99.90;;;;;;5026278;28;25144;-76
2023/03/05 09:18:35;;;;;;;2.88;0.80;;;5.50;99.90;;;;;;5025703;28;25063;-76
2023/03/05 09:21:04;;;;;;;5.30;0.82;;;5.70;99.90;;;;;;5024872;28;25053;-76
2023/03/05 09:23:29;;;;;;;5.57;2.22;;;5.80;99.90;;;;;;5024800;28;25099;-77
2023/03/05 09:25:55;;;;;;;4.45;0.80;;;6.00;99.90;;;;;;5024030;28;25100;-76
2023/03/05 09:28:20;;;;;;;0.70;0.70;;;5.80;99.90;;;;;;5025541;28;25086;-76
2023/03/05 09:30:46;;;;;;;8.02;1.02;;;5.80;99.90;;;;;;5023471;28;25077;-75
2023/03/05 09:33:12;;;;;;;1.90;0.68;;;5.70;99.90;;;;;;5024437;28;25088;-75
2023/03/05 09:35:37;;;;;;;2.15;0.75;;;5.50;99.90;;;;;;5025672;28;25110;-77
2023/03/05 09:38:03;;;;;;;3.20;0.82;;;5.70;99.90;;;;;;5024178;28;25061;-75
2023/03/05 09:40:58;;;;;;;1.42;0.70;;;5.90;99.90;;;;;;5026182;28;25074;-76
2023/03/05 09:43:44;;;;;;;7.57;1.00;;;5.70;99.90;;;;;;4992839;28;25097;-75
2023/03/05 09:46:53;;;;;;;8.38;1.30;;;5.70;99.90;;;;;;5024822;28;25052;-75
2023/03/05 09:49:43;;;;;;;3.72;1.25;;;5.80;99.90;;;;;;5024214;28;25055;-75
2023/03/05 09:52:37;;;;;;;0.90;0.50;;;5.80;99.90;;;;;;5025063;28;25092;-75
2023/03/05 09:55:09;;;;;;;4.32;1.00;;;6.10;99.90;;;;;;5020541;28;25076;-75
2023/03/05 09:57:41;;;;;;;2.33;0.70;;;6.40;99.90;;;;;;5012315;28;25072;-75
2023/03/05 10:00:33;;;;;;;4.63;0.82;;;6.30;99.90;;;;;;5016832;28;25125;-77
2023/03/05 10:03:04;;;;;;;9.45;1.35;;;6.40;99.90;;;;;;5022980;28;25097;-75
2023/03/05 10:05:35;;;;;;;2.97;1.30;;;6.30;99.90;;;;;;5027657;28;25060;-75
2023/03/05 10:08:04;;;;;;;2.30;0.80;;;6.60;99.90;;;;;;5036168;28;25067;-78
2023/03/05 10:10:42;;;;;;;5.45;1.00;;;6.60;99.90;;;;;;5031438;28;25069;-77
2023/03/05 10:13:20;;;;;;;6.95;2.80;;;6.40;99.90;;;;;;5028998;28;25122;-74
2023/03/05 10:16:05;;;;;;;3.13;0.90;;;6.40;99.90;;;;;;5026139;28;25121;-75
2023/03/05 10:18:39;;;;;;;1.67;0.95;;;6.10;99.90;;;;;;5025737;28;25099;-77
2023/03/05 10:21:14;;;;;;;2.33;0.77;;;6.10;99.90;;;;;;5024163;28;25070;-73
2023/03/05 10:24:06;;;;;;;8.65;1.30;;;5.80;99.90;;;;;;5015932;28;25075;-75
2023/03/05 10:27:07;;;;;;;11.18;2.00;;;5.40;99.90;;;;;;5036325;28;25077;-76
2023/03/05 10:29:53;;;;;;;2.28;1.08;;;5.10;99.90;;;;;;5031881;28;25056;-76
2023/03/05 10:32:49;;;;;;;1.00;0.55;;;4.90;99.90;;;;;;5027610;28;25058;-75
2023/03/05 10:35:27;;;;;;;0.88;0.40;;;5.00;99.90;;;;;;5027325;28;25095;-77
2023/03/05 10:38:36;;;;;;;0.50;0.50;;;5.30;99.90;;;;;;5028355;28;25087;-77
2023/03/05 10:41:25;;;;;;;1.45;0.57;;;5.30;99.90;;;;;;5028761;28;25088;-76
2023/03/05 10:44:14;;;;;;;2.95;0.52;;;5.10;99.90;;;;;;5028418;28;25077;-76
2023/03/05 10:46:40;;;;;;;5.00;0.60;;;5.10;99.90;;;;;;5026079;28;25089;-75
2023/03/05 10:49:17;;;;;;;1.25;0.50;;;5.20;99.90;;;;;;5018384;28;25066;-77
2023/03/05 10:51:54;;;;;;;0.85;0.35;;;5.20;99.90;;;;;;5031454;28;25053;-77
2023/03/05 10:54:29;;;;;;;4.47;0.45;;;5.40;99.90;;;;;;5035078;28;25138;-77
2023/03/05 10:57:12;;;;;;;0.90;0.43;;;5.60;99.90;;;;;;5032891;28;25056;-75
2023/03/05 10:59:43;;;;;;;1.35;0.60;;;5.70;99.90;;;;;;5031185;28;25142;-75
2023/03/05 11:02:08;;;;;;;0.50;0.50;;;5.70;99.90;;;;;;5027599;28;25072;-77
2023/03/05 11:04:37;;;;;;;2.28;0.30;;;5.70;99.90;;;;;;5026171;28;25058;-77
2023/03/05 11:07:14;;;;;;;3.80;0.60;;;5.70;99.90;;;;;;5026179;28;25059;-76
2023/03/05 11:09:58;;;;;;;2.13;0.68;;;5.80;99.90;;;;;;5016086;28;25073;-76
2023/03/05 11:12:27;;;;;;;2.72;1.10;;;5.80;99.90;;;;;;5027318;28;25171;-76
2023/03/05 11:15:10;;;;;;;1.35;0.73;;;5.90;99.90;;;;;;5026349;28;25061;-77
2023/03/05 11:17:43;;;;;;;1.73;0.75;;;6.30;99.90;;;;;;5027115;28;25076;-77
2023/03/05 11:20:27;;;;;;;2.72;0.90;;;6.20;99.90;;;;;;5028115;28;25070;-77
2023/03/05 11:23:10;;;;;;;1.10;0.77;;;6.20;99.90;;;;;;5026919;28;25067;-77
2023/03/05 11:26:01;;;;;;;1.30;0.65;;;6.40;99.90;;;;;;5026951;28;25057;-76
2023/03/05 11:28:35;;;;;;;4.38;0.77;;;6.40;99.90;;;;;;5025428;28;25133;-79
2023/03/05 11:31:06;;;;;;;2.15;0.60;;;6.20;99.90;;;;;;5026320;28;25148;-76
2023/03/05 11:33:33;;;;;;;5.97;0.50;;;6.40;99.90;;;;;;5026404;28;25058;-77
2023/03/05 11:36:20;;;;;;;2.05;0.50;;;6.40;99.90;;;;;;5026077;28;25056;-75
2023/03/05 11:39:16;;;;;;;0.95;0.47;;;6.40;99.90;;;;;;5015234;28;25093;-76
2023/03/05 11:41:48;;;;;;;0.68;0.55;;;6.30;99.90;;;;;;5024450;28;25082;-75
2023/03/05 11:44:33;;;;;;;2.20;0.70;;;6.30;99.90;;;;;;5026367;28;25086;-75
2023/03/05 11:47:18;;;;;;;0.55;0.55;;;6.20;99.90;;;;;;5031532;28;25163;-75
2023/03/05 11:49:47;;;;;;;0.52;0.47;;;6.00;99.90;;;;;;5024413;28;25100;-75
2023/03/05 11:52:32;;;;;;;1.15;0.65;;;5.90;99.90;;;;;;5026120;28;25078;-74
2023/03/05 11:55:16;;;;;;;2.78;0.50;;;6.00;99.90;;;;;;5031732;28;25058;-75
2023/03/05 11:57:47;;;;;;;1.00;0.90;;;6.00;99.90;;;;;;5027492;28;25078;-74
2023/03/05 12:00:20;;;;;;;0.77;0.77;;;6.50;99.90;;;;;;5027707;28;25074;-73
2023/03/05 12:02:51;;;;;;;2.30;0.80;;;6.80;99.90;;;;;;5026270;28;25088;-74
2023/03/05 12:05:17;;;;;;;1.08;0.47;;;6.70;99.90;;;;;;5037735;28;25096;-73
2023/03/05 12:07:47;;;;;;;1.55;0.38;;;6.60;99.90;;;;;;5025927;28;25149;-72
2023/03/05 12:10:24;;;;;;;2.38;0.30;;;6.60;99.90;;;;;;5024846;28;25067;-71
2023/03/05 12:13:05;;;;;;;0.93;0.57;;;6.50;99.90;;;;;;5025257;28;25067;-73
2023/03/05 12:15:40;;;;;;;2.53;0.77;;;6.70;99.90;;;;;;5024350;28;25139;-73
2023/03/05 12:18:19;;;;;;;1.38;0.40;;;6.90;99.90;;;;;;5024732;28;25050;-73
2023/03/05 12:21:03;;;;;;;1.10;0.52;;;7.20;99.90;;;;;;5024968;28;25050;-74
2023/03/05 12:23:42;;;;;;;2.00;0.40;;;6.90;99.90;;;;;;5025341;28;25065;-74
2023/03/05 12:26:07;;;;;;;3.50;0.70;;;7.00;99.90;;;;;;5025477;28;25066;-74
2023/03/05 12:28:33;;;;;;;3.03;0.80;;;6.80;99.90;;;;;;5024533;28;25065;-72
2023/03/05 12:31:04;;;;;;;2.65;0.32;;;6.60;99.90;;;;;;5024213;28;25128;-73
2023/03/05 12:33:41;;;;;;;1.95;0.68;;;6.70;99.90;;;;;;5025080;28;25063;-74
2023/03/05 12:36:16;;;;;;;2.58;0.90;;;6.50;99.90;;;;;;5026588;28;25063;-74
2023/03/05 12:38:42;;;;;;;1.38;0.45;;;6.60;99.90;;;;;;5026209;28;25069;-74
2023/03/05 12:41:23;;;;;;;0.50;0.50;;;6.90;99.90;;;;;;5031103;28;25064;-72
2023/03/05 12:44:04;;;;;;;6.07;0.63;;;6.80;99.90;;;;;;5032598;28;25071;-73
2023/03/05 12:46:34;;;;;;;1.02;0.75;;;6.80;99.90;;;;;;5030493;28;25194;-75
2023/03/05 12:49:22;;;;;;;1.45;0.50;;;6.70;99.90;;;;;;5025752;28;25081;-74
2023/03/05 12:51:56;;;;;;;1.77;0.65;;;6.50;99.90;;;;;;5023807;28;25058;-74
2023/03/05 12:54:32;;;;;;;2.15;0.60;;;6.70;99.90;;;;;;5025230;28;25060;-74
2023/03/05 12:57:28;;;;;;;1.23;0.65;;;6.80;99.90;;;;;;5025231;28;25140;-73
2023/03/05 13:00:09;;;;;;;2.60;0.50;;;6.70;99.90;;;;;;5009114;28;25075;-74
2023/03/05 13:02:42;;;;;;;1.85;0.55;;;6.40;99.90;;;;;;5023235;28;25067;-73
2023/03/05 13:05:29;;;;;;;1.05;0.85;;;6.30;99.90;;;;;;5024230;28;25061;-73
2023/03/05 13:08:10;;;;;;;1.25;0.80;;;6.30;99.90;;;;;;5012777;28;25041;-73